sensor_id;sensor_type;location;lat;lon;timestamp;pressure;altitude;pressure_sealevel;temperature;humidity
69971;BME280;57301;50.328;8.542;2023-03-25T00:00:06;97493.38;;;7.09;85.47
69971;BME280;57301;50.328;8.542;2023-03-25T00:02:39;97492.53;;;7.08;84.95
69971;BME280;57301;50.328;8.542;2023-03-25T00:05:06;97478.66;;;7.14;85.02
69971;BME280;57301;50.328;8.542;2023-03-25T00:07:33;97488.25;;;7.07;85.42
69971;BME280;57301;50.328;8.542;2023-03-25T00:09:59;97492.84;;;7.05;84.11
69971;BME280;57301;50.328;8.542;2023-03-25T00:12:26;97491.19;;;7.04;83.92
69971;BME280;57301;50.328;8.542;2023-03-25T00:14:52;97494.81;;;7.03;84.00
69971;BME280;57301;50.328;8.542;2023-03-25T00:17:24;97493.47;;;6.99;84.08
69971;BME280;57301;50.328;8.542;2023-03-25T00:19:57;97485.50;;;6.99;84.31
69971;BME280;57301;50.328;8.542;2023-03-25T00:22:26;97482.81;;;6.91;84.40
69971;BME280;57301;50.328;8.542;2023-03-25T00:24:52;97486.84;;;6.95;84.09
69971;BME280;57301;50.328;8.542;2023-03-25T00:27:19;97482.81;;;6.91;83.64
69971;BME280;57301;50.328;8.542;2023-03-25T00:29:45;97491.75;;;6.90;83.96
69971;BME280;57301;50.328;8.542;2023-03-25T00:32:14;97488.75;;;6.85;83.75
69971;BME280;57301;50.328;8.542;2023-03-25T00:34:41;97497.81;;;7.00;83.27
69971;BME280;57301;50.328;8.542;2023-03-25T00:37:14;97491.97;;;6.96;83.31
69971;BME280;57301;50.328;8.542;2023-03-25T00:39:47;97491.66;;;6.99;82.42
69971;BME280;57301;50.328;8.542;2023-03-25T00:42:17;97491.66;;;6.99;82.50
69971;BME280;57301;50.328;8.542;2023-03-25T00:44:51;97492.13;;;6.95;82.50
69971;BME280;57301;50.328;8.542;2023-03-25T00:47:18;97508.06;;;7.03;82.46
69971;BME280;57301;50.328;8.542;2023-03-25T00:49:47;97498.44;;;6.94;82.09
69971;BME280;57301;50.328;8.542;2023-03-25T00:52:14;97510.97;;;6.92;82.18
69971;BME280;57301;50.328;8.542;2023-03-25T00:54:41;97490.47;;;6.94;82.44
69971;BME280;57301;50.328;8.542;2023-03-25T00:57:08;97499.34;;;6.85;81.54
69971;BME280;57301;50.328;8.542;2023-03-25T00:59:35;97514.69;;;6.81;82.25
69971;BME280;57301;50.328;8.542;2023-03-25T01:02:01;97498.50;;;6.84;82.67
69971;BME280;57301;50.328;8.542;2023-03-25T01:04:29;97502.66;;;6.87;82.31
69971;BME280;57301;50.328;8.542;2023-03-25T01:06:55;97501.16;;;6.84;82.31
69971;BME280;57301;50.328;8.542;2023-03-25T01:09:22;97503.34;;;6.89;81.97
69971;BME280;57301;50.328;8.542;2023-03-25T01:11:48;97504.84;;;6.91;82.28
69971;BME280;57301;50.328;8.542;2023-03-25T01:14:19;97507.44;;;6.83;82.44
69971;BME280;57301;50.328;8.542;2023-03-25T01:16:46;97498.50;;;6.84;82.46
69971;BME280;57301;50.328;8.542;2023-03-25T01:19:13;97496.03;;;6.83;82.40
69971;BME280;57301;50.328;8.542;2023-03-25T01:21:40;97505.19;;;6.88;82.17
69971;BME280;57301;50.328;8.542;2023-03-25T01:24:09;97485.06;;;6.78;82.74
69971;BME280;57301;50.328;8.542;2023-03-25T01:26:37;97490.81;;;6.73;82.88
69971;BME280;57301;50.328;8.542;2023-03-25T01:29:03;97481.56;;;6.77;83.09
69971;BME280;57301;50.328;8.542;2023-03-25T01:31:30;97483.41;;;6.77;83.02
69971;BME280;57301;50.328;8.542;2023-03-25T01:33:57;97491.97;;;6.70;83.49
69971;BME280;57301;50.328;8.542;2023-03-25T01:36:25;97478.94;;;6.77;82.82
69971;BME280;57301;50.328;8.542;2023-03-25T01:38:56;97474.13;;;6.81;83.43
69971;BME280;57301;50.328;8.542;2023-03-25T01:41:25;97472.84;;;6.85;82.75
69971;BME280;57301;50.328;8.542;2023-03-25T01:46:40;97475.66;;;6.83;82.97
69971;BME280;57301;50.328;8.542;2023-03-25T01:49:17;97477.78;;;6.80;83.37
69971;BME280;57301;50.328;8.542;2023-03-25T01:51:52;97471.84;;;6.86;83.17
69971;BME280;57301;50.328;8.542;2023-03-25T01:54:20;97473.50;;;6.87;82.87
69971;BME280;57301;50.328;8.542;2023-03-25T01:56:47;97480.78;;;6.85;83.68
69971;BME280;57301;50.328;8.542;2023-03-25T01:59:16;97470.19;;;6.85;83.47
69971;BME280;57301;50.328;8.542;2023-03-25T02:01:45;97469.72;;;6.89;83.41
69971;BME280;57301;50.328;8.542;2023-03-25T02:04:14;97462.00;;;6.96;82.84
69971;BME280;57301;50.328;8.542;2023-03-25T02:06:48;97475.59;;;7.01;82.65
69971;BME280;57301;50.328;8.542;2023-03-25T02:09:20;97478.63;;;7.06;82.22
69971;BME280;57301;50.328;8.542;2023-03-25T02:11:47;97475.44;;;7.03;82.95
69971;BME280;57301;50.328;8.542;2023-03-25T02:14:17;97478.69;;;6.88;85.21
69971;BME280;57301;50.328;8.542;2023-03-25T02:16:52;97463.44;;;6.90;86.79
69971;BME280;57301;50.328;8.542;2023-03-25T02:19:46;97458.31;;;6.89;88.09
69971;BME280;57301;50.328;8.542;2023-03-25T02:27:59;97462.88;;;6.79;87.85
69971;BME280;57301;50.328;8.542;2023-03-25T02:30:58;97459.78;;;6.65;87.96
69971;BME280;57301;50.328;8.542;2023-03-25T02:33:53;97454.97;;;6.61;88.73
69971;BME280;57301;50.328;8.542;2023-03-25T02:39:15;97453.50;;;6.92;87.88
69971;BME280;57301;50.328;8.542;2023-03-25T02:41:58;97443.78;;;6.75;88.43
69971;BME280;57301;50.328;8.542;2023-03-25T02:44:44;97439.81;;;6.71;89.42
69971;BME280;57301;50.328;8.542;2023-03-25T02:47:16;97440.84;;;6.78;89.33
69971;BME280;57301;50.328;8.542;2023-03-25T02:50:04;97437.53;;;6.76;89.48
69971;BME280;57301;50.328;8.542;2023-03-25T02:52:42;97429.41;;;6.78;89.28
69971;BME280;57301;50.328;8.542;2023-03-25T02:55:13;97435.00;;;6.74;90.18
69971;BME280;57301;50.328;8.542;2023-03-25T02:57:45;97428.41;;;6.79;89.35
69971;BME280;57301;50.328;8.542;2023-03-25T03:00:18;97434.28;;;6.90;88.85
69971;BME280;57301;50.328;8.542;2023-03-25T03:03:02;97429.09;;;6.81;88.92
69971;BME280;57301;50.328;8.542;2023-03-25T03:05:42;97426.13;;;6.84;88.21
69971;BME280;57301;50.328;8.542;2023-03-25T03:26:57;97443.59;;;6.94;86.85
69971;BME280;57301;50.328;8.542;2023-03-25T03:29:29;97444.25;;;6.96;86.80
69971;BME280;57301;50.328;8.542;2023-03-25T03:32:08;97454.66;;;6.90;86.99
69971;BME280;57301;50.328;8.542;2023-03-25T03:34:47;97452.22;;;6.96;86.74
69971;BME280;57301;50.328;8.542;2023-03-25T03:37:23;97458.19;;;6.98;85.33
69971;BME280;57301;50.328;8.542;2023-03-25T03:39:53;97453.25;;;7.04;85.60
69971;BME280;57301;50.328;8.542;2023-03-25T03:42:33;97457.75;;;7.11;86.50
69971;BME280;57301;50.328;8.542;2023-03-25T03:45:07;97457.84;;;7.27;85.68
69971;BME280;57301;50.328;8.542;2023-03-25T03:47:38;97469.25;;;7.20;85.59
69971;BME280;57301;50.328;8.542;2023-03-25T03:50:22;97470.34;;;7.09;86.50
69971;BME280;57301;50.328;8.542;2023-03-25T03:53:01;97471.59;;;6.97;87.63
69971;BME280;57301;50.328;8.542;2023-03-25T03:55:43;97461.53;;;7.00;87.61
69971;BME280;57301;50.328;8.542;2023-03-25T03:58:19;97477.44;;;7.00;87.40
69971;BME280;57301;50.328;8.542;2023-03-25T04:01:00;97478.56;;;6.98;87.82
69971;BME280;57301;50.328;8.542;2023-03-25T04:03:33;97476.94;;;7.05;87.99
69971;BME280;57301;50.328;8.542;2023-03-25T04:06:15;97473.06;;;6.91;88.67
69971;BME280;57301;50.328;8.542;2023-03-25T04:08:52;97479.19;;;6.92;88.39
69971;BME280;57301;50.328;8.542;2023-03-25T04:11:34;97478.97;;;6.85;89.36
69971;BME280;57301;50.328;8.542;2023-03-25T04:14:03;97491.75;;;6.90;88.92
69971;BME280;57301;50.328;8.542;2023-03-25T04:16:31;97499.88;;;6.88;88.83
69971;BME280;57301;50.328;8.542;2023-03-25T04:19:01;97508.06;;;6.77;90.61
69971;BME280;57301;50.328;8.542;2023-03-25T04:21:29;97501.94;;;6.77;91.65
69971;BME280;57301;50.328;8.542;2023-03-25T04:23:55;97500.91;;;6.69;91.63
69971;BME280;57301;50.328;8.542;2023-03-25T04:26:22;97506.44;;;6.58;91.53
69971;BME280;57301;50.328;8.542;2023-03-25T04:28:48;97506.66;;;6.65;92.00
69971;BME280;57301;50.328;8.542;2023-03-25T04:31:15;97495.50;;;6.79;90.06
69971;BME280;57301;50.328;8.542;2023-03-25T04:33:43;97500.47;;;7.00;89.02
69971;BME280;57301;50.328;8.542;2023-03-25T04:36:14;97500.72;;;6.89;86.67
69971;BME280;57301;50.328;8.542;2023-03-25T04:38:41;97495.78;;;6.94;86.22
69971;BME280;57301;50.328;8.542;2023-03-25T04:41:11;97502.47;;;7.06;85.80
69971;BME280;57301;50.328;8.542;2023-03-25T04:43:39;97503.50;;;7.13;83.91
69971;BME280;57301;50.328;8.542;2023-03-25T04:46:05;97503.34;;;7.15;83.87
69971;BME280;57301;50.328;8.542;2023-03-25T04:48:34;97508.13;;;7.11;83.69
69971;BME280;57301;50.328;8.542;2023-03-25T04:51:00;97506.28;;;7.12;83.74
69971;BME280;57301;50.328;8.542;2023-03-25T04:53:28;97503.50;;;7.13;82.43
69971;BME280;57301;50.328;8.542;2023-03-25T04:55:55;97499.47;;;7.01;83.16
69971;BME280;57301;50.328;8.542;2023-03-25T04:58:22;97500.59;;;6.98;83.04
69971;BME280;57301;50.328;8.542;2023-03-25T05:00:50;97502.56;;;6.96;83.66
69971;BME280;57301;50.328;8.542;2023-03-25T05:03:18;97491.31;;;6.94;82.54
69971;BME280;57301;50.328;8.542;2023-03-25T05:05:51;97494.63;;;6.96;81.44
69971;BME280;57301;50.328;8.542;2023-03-25T05:08:19;97500.13;;;7.03;81.57
69971;BME280;57301;50.328;8.542;2023-03-25T05:10:47;97505.66;;;7.18;81.77
69971;BME280;57301;50.328;8.542;2023-03-25T05:13:16;97501.31;;;7.09;81.58
69971;BME280;57301;50.328;8.542;2023-03-25T05:15:42;97500.50;;;7.08;79.52
69971;BME280;57301;50.328;8.542;2023-03-25T05:18:11;97502.94;;;7.27;78.67
69971;BME280;57301;50.328;8.542;2023-03-25T05:20:41;97508.66;;;7.15;79.11
69971;BME280;57301;50.328;8.542;2023-03-25T05:23:10;97510.31;;;7.16;78.56
69971;BME280;57301;50.328;8.542;2023-03-25T05:25:44;97500.16;;;7.11;78.41
69971;BME280;57301;50.328;8.542;2023-03-25T05:28:13;97505.66;;;7.18;78.47
69971;BME280;57301;50.328;8.542;2023-03-25T05:30:40;97506.84;;;7.15;77.98
69971;BME280;57301;50.328;8.542;2023-03-25T05:33:08;97526.06;;;7.17;78.61
69971;BME280;57301;50.328;8.542;2023-03-25T05:35:37;97518.84;;;7.27;78.90
69971;BME280;57301;50.328;8.542;2023-03-25T05:38:05;97517.47;;;7.23;77.76
69971;BME280;57301;50.328;8.542;2023-03-25T05:40:34;97527.13;;;7.24;77.65
69971;BME280;57301;50.328;8.542;2023-03-25T05:43:01;97526.88;;;7.18;77.73
69971;BME280;57301;50.328;8.542;2023-03-25T05:45:28;97531.06;;;7.20;78.10
69971;BME280;57301;50.328;8.542;2023-03-25T05:47:55;97539.31;;;7.17;77.65
69971;BME280;57301;50.328;8.542;2023-03-25T05:50:22;97527.78;;;7.26;78.18
69971;BME280;57301;50.328;8.542;2023-03-25T05:52:49;97539.19;;;7.19;78.51
69971;BME280;57301;50.328;8.542;2023-03-25T05:55:20;97528.13;;;7.06;78.75
69971;BME280;57301;50.328;8.542;2023-03-25T05:57:48;97537.59;;;7.08;77.97
69971;BME280;57301;50.328;8.542;2023-03-25T06:00:16;97543.69;;;7.00;79.02
69971;BME280;57301;50.328;8.542;2023-03-25T06:02:44;97542.88;;;7.00;79.22
69971;BME280;57301;50.328;8.542;2023-03-25T06:05:12;97540.28;;;6.90;78.63
69971;BME280;57301;50.328;8.542;2023-03-25T06:07:43;97536.38;;;7.20;78.04
69971;BME280;57301;50.328;8.542;2023-03-25T06:10:12;97540.81;;;7.46;76.93
69971;BME280;57301;50.328;8.542;2023-03-25T06:12:43;97544.94;;;7.74;76.29
69971;BME280;57301;50.328;8.542;2023-03-25T06:15:12;97538.84;;;7.90;75.61
69971;BME280;57301;50.328;8.542;2023-03-25T06:17:39;97535.78;;;8.11;75.34
69971;BME280;57301;50.328;8.542;2023-03-25T06:20:08;97543.19;;;9.07;71.26
69971;BME280;57301;50.328;8.542;2023-03-25T06:22:40;97541.81;;;9.52;69.57
69971;BME280;57301;50.328;8.542;2023-03-25T06:25:11;97543.84;;;10.28;65.76
69971;BME280;57301;50.328;8.542;2023-03-25T06:27:38;97549.56;;;10.94;65.02
69971;BME280;57301;50.328;8.542;2023-03-25T06:30:13;97552.56;;;11.28;62.92
69971;BME280;57301;50.328;8.542;2023-03-25T06:32:40;97554.25;;;10.07;65.71
69971;BME280;57301;50.328;8.542;2023-03-25T06:35:08;97544.81;;;9.40;67.92
69971;BME280;57301;50.328;8.542;2023-03-25T06:37:36;97548.84;;;9.20;69.88
69971;BME280;57301;50.328;8.542;2023-03-25T06:40:03;97560.94;;;9.39;69.90
69971;BME280;57301;50.328;8.542;2023-03-25T06:42:32;97554.94;;;9.45;68.97
69971;BME280;57301;50.328;8.542;2023-03-25T06:44:59;97553.19;;;8.80;69.59
69971;BME280;57301;50.328;8.542;2023-03-25T06:47:28;97558.34;;;8.66;71.76
69971;BME280;57301;50.328;8.542;2023-03-25T06:49:54;97558.22;;;8.25;72.56
69971;BME280;57301;50.328;8.542;2023-03-25T06:52:21;97563.06;;;7.87;74.03
69971;BME280;57301;50.328;8.542;2023-03-25T06:54:47;97549.53;;;7.98;74.11
69971;BME280;57301;50.328;8.542;2023-03-25T06:57:14;97547.53;;;9.16;71.92
69971;BME280;57301;50.328;8.542;2023-03-25T06:59:40;97559.75;;;10.67;66.64
69971;BME280;57301;50.328;8.542;2023-03-25T07:02:11;97557.66;;;11.23;63.50
69971;BME280;57301;50.328;8.542;2023-03-25T07:04:39;97568.94;;;10.88;63.13
69971;BME280;57301;50.328;8.542;2023-03-25T07:07:07;97567.00;;;9.80;65.97
69971;BME280;57301;50.328;8.542;2023-03-25T07:09:33;97560.00;;;9.79;67.20
69971;BME280;57301;50.328;8.542;2023-03-25T07:12:00;97548.31;;;9.33;68.65
69971;BME280;57301;50.328;8.542;2023-03-25T07:14:26;97554.91;;;9.61;68.77
69971;BME280;57301;50.328;8.542;2023-03-25T07:16:53;97557.25;;;10.66;65.73
69971;BME280;57301;50.328;8.542;2023-03-25T07:19:19;97558.22;;;10.11;66.19
69971;BME280;57301;50.328;8.542;2023-03-25T07:21:46;97565.81;;;8.95;69.46
69971;BME280;57301;50.328;8.542;2023-03-25T07:24:14;97558.13;;;8.43;71.54
69971;BME280;57301;50.328;8.542;2023-03-25T07:26:41;97554.81;;;8.49;72.27
69971;BME280;57301;50.328;8.542;2023-03-25T07:29:07;97555.34;;;8.69;71.82
69971;BME280;57301;50.328;8.542;2023-03-25T07:31:34;97547.31;;;8.36;72.28
69971;BME280;57301;50.328;8.542;2023-03-25T07:34:00;97560.34;;;8.21;72.84
69971;BME280;57301;50.328;8.542;2023-03-25T07:36:28;97561.63;;;8.43;72.59
69971;BME280;57301;50.328;8.542;2023-03-25T07:38:54;97556.63;;;8.40;72.46
69971;BME280;57301;50.328;8.542;2023-03-25T07:41:22;97557.13;;;8.36;73.06
69971;BME280;57301;50.328;8.542;2023-03-25T07:43:49;97555.81;;;8.56;72.19
69971;BME280;57301;50.328;8.542;2023-03-25T07:46:15;97551.53;;;8.79;71.77
69971;BME280;57301;50.328;8.542;2023-03-25T07:48:42;97559.50;;;8.87;71.05
69971;BME280;57301;50.328;8.542;2023-03-25T07:51:08;97557.13;;;8.44;71.08
69971;BME280;57301;50.328;8.542;2023-03-25T07:53:35;97557.84;;;8.78;71.22
69971;BME280;57301;50.328;8.542;2023-03-25T07:56:05;97553.50;;;8.69;72.15
69971;BME280;57301;50.328;8.542;2023-03-25T07:58:32;97562.47;;;9.01;70.85
69971;BME280;57301;50.328;8.542;2023-03-25T08:00:59;97554.00;;;8.65;71.93
69971;BME280;57301;50.328;8.542;2023-03-25T08:03:26;97562.47;;;8.76;71.80
69971;BME280;57301;50.328;8.542;2023-03-25T08:05:54;97559.31;;;8.65;70.87
69971;BME280;57301;50.328;8.542;2023-03-25T08:08:21;97566.78;;;8.77;71.64
69971;BME280;57301;50.328;8.542;2023-03-25T08:10:47;97557.34;;;8.99;71.36
69971;BME280;57301;50.328;8.542;2023-03-25T08:13:16;97541.34;;;9.24;71.43
69971;BME280;57301;50.328;8.542;2023-03-25T08:15:42;97546.69;;;9.15;70.60
69971;BME280;57301;50.328;8.542;2023-03-25T08:18:09;97547.44;;;9.57;69.51
69971;BME280;57301;50.328;8.542;2023-03-25T08:20:35;97563.28;;;9.42;69.24
69971;BME280;57301;50.328;8.542;2023-03-25T08:23:02;97553.69;;;9.00;69.45
69971;BME280;57301;50.328;8.542;2023-03-25T08:25:30;97536.41;;;9.04;70.49
69971;BME280;57301;50.328;8.542;2023-03-25T08:27:56;97543.84;;;9.33;69.51
69971;BME280;57301;50.328;8.542;2023-03-25T08:30:23;97545.72;;;9.08;69.79
69971;BME280;57301;50.328;8.542;2023-03-25T08:32:50;97547.75;;;9.62;69.26
69971;BME280;57301;50.328;8.542;2023-03-25T08:35:21;97539.78;;;10.40;67.35
69971;BME280;57301;50.328;8.542;2023-03-25T08:37:49;97549.56;;;10.09;67.34
69971;BME280;57301;50.328;8.542;2023-03-25T08:40:16;97539.16;;;9.91;67.00
69971;BME280;57301;50.328;8.542;2023-03-25T08:42:43;97531.31;;;9.98;67.07
69971;BME280;57301;50.328;8.542;2023-03-25T08:45:10;97535.34;;;9.38;68.61
69971;BME280;57301;50.328;8.542;2023-03-25T08:47:37;97533.66;;;9.45;68.20
69971;BME280;57301;50.328;8.542;2023-03-25T08:50:04;97529.63;;;9.57;67.91
69971;BME280;57301;50.328;8.542;2023-03-25T08:52:31;97531.44;;;9.65;68.26
69971;BME280;57301;50.328;8.542;2023-03-25T08:54:58;97539.84;;;9.46;69.18
69971;BME280;57301;50.328;8.542;2023-03-25T08:57:24;97532.03;;;9.20;70.11
69971;BME280;57301;50.328;8.542;2023-03-25T08:59:51;97537.50;;;9.26;70.81
69971;BME280;57301;50.328;8.542;2023-03-25T09:02:17;97540.22;;;8.69;76.14
69971;BME280;57301;50.328;8.542;2023-03-25T09:04:47;97539.47;;;8.26;78.17
69971;BME280;57301;50.328;8.542;2023-03-25T09:07:13;97556.22;;;8.19;81.70
69971;BME280;57301;50.328;8.542;2023-03-25T09:09:41;97534.44;;;8.07;81.63
69971;BME280;57301;50.328;8.542;2023-03-25T09:12:08;97531.84;;;8.31;81.05
69971;BME280;57301;50.328;8.542;2023-03-25T09:14:35;97525.94;;;9.03;79.38
69971;BME280;57301;50.328;8.542;2023-03-25T09:17:01;97529.91;;;9.15;77.92
69971;BME280;57301;50.328;8.542;2023-03-25T09:19:28;97530.09;;;8.56;79.27
69971;BME280;57301;50.328;8.542;2023-03-25T09:21:54;97557.03;;;8.11;82.52
69971;BME280;57301;50.328;8.542;2023-03-25T09:24:21;97604.94;;;8.01;86.44
69971;BME280;57301;50.328;8.542;2023-03-25T09:26:48;97671.66;;;5.83;92.99
69971;BME280;57301;50.328;8.542;2023-03-25T09:29:15;97653.28;;;5.34;98.99
69971;BME280;57301;50.328;8.542;2023-03-25T09:31:41;97641.75;;;4.97;98.19
69971;BME280;57301;50.328;8.542;2023-03-25T09:34:08;97669.97;;;4.96;99.47
69971;BME280;57301;50.328;8.542;2023-03-25T09:36:34;97658.44;;;4.78;97.74
69971;BME280;57301;50.328;8.542;2023-03-25T09:39:02;97666.47;;;4.57;99.79
69971;BME280;57301;50.328;8.542;2023-03-25T09:44:39;97633.16;;;4.75;100.00
69971;BME280;57301;50.328;8.542;2023-03-25T09:47:13;97639.13;;;4.68;100.00
69971;BME280;57301;50.328;8.542;2023-03-25T09:49:43;97624.25;;;4.67;100.00
69971;BME280;57301;50.328;8.542;2023-03-25T09:52:17;97623.41;;;4.76;100.00
69971;BME280;57301;50.328;8.542;2023-03-25T09:54:49;97604.22;;;4.83;100.00
69971;BME280;57301;50.328;8.542;2023-03-25T09:57:22;97612.81;;;5.15;100.00
69971;BME280;57301;50.328;8.542;2023-03-25T09:59:53;97611.69;;;5.27;100.00
69971;BME280;57301;50.328;8.542;2023-03-25T10:02:41;97597.03;;;5.42;100.00
69971;BME280;57301;50.328;8.542;2023-03-25T10:11:56;97602.13;;;6.00;99.98
69971;BME280;57301;50.328;8.542;2023-03-25T10:14:26;97591.03;;;6.78;98.32
69971;BME280;57301;50.328;8.542;2023-03-25T10:16:59;97592.03;;;8.49;100.00
69971;BME280;57301;50.328;8.542;2023-03-25T10:20:09;97571.78;;;8.88;90.76
69971;BME280;57301;50.328;8.542;2023-03-25T10:25:21;97583.28;;;11.77;83.65
69971;BME280;57301;50.328;8.542;2023-03-25T10:27:51;97580.38;;;10.51;75.11
69971;BME280;57301;50.328;8.542;2023-03-25T10:30:22;97568.66;;;11.73;79.01
69971;BME280;57301;50.328;8.542;2023-03-25T10:32:57;97578.88;;;12.14;75.90
69971;BME280;57301;50.328;8.542;2023-03-25T10:35:28;97591.66;;;12.33;68.66
69971;BME280;57301;50.328;8.542;2023-03-25T10:38:01;97579.28;;;13.26;68.67
69971;BME280;57301;50.328;8.542;2023-03-25T10:40:41;97569.00;;;13.85;68.27
69971;BME280;57301;50.328;8.542;2023-03-25T10:43:23;97585.00;;;13.44;68.11
69971;BME280;57301;50.328;8.542;2023-03-25T10:45:55;97589.81;;;13.83;67.49
69971;BME280;57301;50.328;8.542;2023-03-25T10:48:27;97587.84;;;15.01;62.75
69971;BME280;57301;50.328;8.542;2023-03-25T10:51:13;97584.56;;;15.32;58.34
69971;BME280;57301;50.328;8.542;2023-03-25T10:53:42;97584.44;;;16.31;56.68
69971;BME280;57301;50.328;8.542;2023-03-25T10:56:14;97583.34;;;15.74;57.24
69971;BME280;57301;50.328;8.542;2023-03-25T10:58:45;97591.81;;;15.84;58.79
69971;BME280;57301;50.328;8.542;2023-03-25T11:01:15;97590.97;;;15.71;57.41
69971;BME280;57301;50.328;8.542;2023-03-25T11:03:45;97589.72;;;15.27;60.58
69971;BME280;57301;50.328;8.542;2023-03-25T11:06:26;97590.50;;;14.81;59.79
69971;BME280;57301;50.328;8.542;2023-03-25T11:11:41;97580.91;;;14.59;61.96
69971;BME280;57301;50.328;8.542;2023-03-25T11:14:11;97585.50;;;14.71;57.69
69971;BME280;57301;50.328;8.542;2023-03-25T11:16:45;97588.06;;;15.32;55.71
69971;BME280;57301;50.328;8.542;2023-03-25T11:19:20;97586.53;;;14.22;55.21
69971;BME280;57301;50.328;8.542;2023-03-25T11:21:53;97589.19;;;14.57;54.52
69971;BME280;57301;50.328;8.542;2023-03-25T11:24:22;97587.59;;;14.76;54.66
69971;BME280;57301;50.328;8.542;2023-03-25T11:26:52;97576.97;;;14.07;54.61
69971;BME280;57301;50.328;8.542;2023-03-25T11:29:23;97588.75;;;14.12;54.64
69971;BME280;57301;50.328;8.542;2023-03-25T11:32:03;97562.34;;;14.57;50.85
69971;BME280;57301;50.328;8.542;2023-03-25T11:34:31;97587.09;;;14.52;52.38
69971;BME280;57301;50.328;8.542;2023-03-25T11:37:06;97582.75;;;13.48;53.43
69971;BME280;57301;50.328;8.542;2023-03-25T11:39:39;97590.34;;;12.58;56.58
69971;BME280;57301;50.328;8.542;2023-03-25T11:42:13;97580.69;;;12.79;54.21
69971;BME280;57301;50.328;8.542;2023-03-25T11:44:41;97574.63;;;12.34;57.31
69971;BME280;57301;50.328;8.542;2023-03-25T11:47:09;97579.66;;;12.80;55.46
69971;BME280;57301;50.328;8.542;2023-03-25T11:49:38;97582.22;;;13.31;53.83
69971;BME280;57301;50.328;8.542;2023-03-25T11:52:19;97575.59;;;13.27;54.09
69971;BME280;57301;50.328;8.542;2023-03-25T11:54:48;97582.00;;;13.54;55.60
69971;BME280;57301;50.328;8.542;2023-03-25T11:57:19;97564.78;;;13.41;52.29
69971;BME280;57301;50.328;8.542;2023-03-25T11:59:48;97561.19;;;13.28;53.08
69971;BME280;57301;50.328;8.542;2023-03-25T12:02:35;97552.31;;;14.24;51.64
69971;BME280;57301;50.328;8.542;2023-03-25T12:05:11;97562.03;;;15.26;48.14
69971;BME280;57301;50.328;8.542;2023-03-25T12:07:42;97556.03;;;15.91;45.00
69971;BME280;57301;50.328;8.542;2023-03-25T12:10:33;97561.44;;;15.24;46.58
69971;BME280;57301;50.328;8.542;2023-03-25T12:16:42;97543.09;;;17.77;44.90
69971;BME280;57301;50.328;8.542;2023-03-25T12:33:01;97546.06;;;15.98;48.92
69971;BME280;57301;50.328;8.542;2023-03-25T12:38:35;97539.94;;;18.35;43.09
69971;BME280;57301;50.328;8.542;2023-03-25T12:41:20;97547.56;;;18.57;41.66
69971;BME280;57301;50.328;8.542;2023-03-25T12:44:45;97537.59;;;17.15;42.97
69971;BME280;57301;50.328;8.542;2023-03-25T12:47:22;97527.91;;;18.19;42.08
69971;BME280;57301;50.328;8.542;2023-03-25T13:08:46;97529.44;;;13.25;53.12
69971;BME280;57301;50.328;8.542;2023-03-25T13:11:24;97522.16;;;15.63;53.34
69971;BME280;57301;50.328;8.542;2023-03-25T13:13:55;97528.50;;;16.85;46.11
69971;BME280;57301;50.328;8.542;2023-03-25T13:16:26;97523.84;;;17.92;41.82
69971;BME280;57301;50.328;8.542;2023-03-25T13:21:40;97551.44;;;14.72;46.05
69971;BME280;57301;50.328;8.542;2023-03-25T13:24:13;97546.94;;;14.99;47.59
69971;BME280;57301;50.328;8.542;2023-03-25T13:26:43;97541.31;;;16.45;45.64
69971;BME280;57301;50.328;8.542;2023-03-25T13:29:21;97544.47;;;17.11;43.52
69971;BME280;57301;50.328;8.542;2023-03-25T13:31:50;97541.41;;;18.01;41.25
69971;BME280;57301;50.328;8.542;2023-03-25T13:34:31;97532.00;;;16.85;44.32
69971;BME280;57301;50.328;8.542;2023-03-25T13:37:07;97534.25;;;16.95;40.98
69971;BME280;57301;50.328;8.542;2023-03-25T13:39:49;97526.31;;;17.00;42.17
69971;BME280;57301;50.328;8.542;2023-03-25T13:42:25;97513.69;;;17.26;41.51
69971;BME280;57301;50.328;8.542;2023-03-25T13:44:54;97512.03;;;16.23;43.71
69971;BME280;57301;50.328;8.542;2023-03-25T13:47:36;97520.00;;;16.43;42.26
69971;BME280;57301;50.328;8.542;2023-03-25T13:50:19;97520.56;;;18.08;40.17
69971;BME280;57301;50.328;8.542;2023-03-25T13:52:53;97528.34;;;15.37;42.98
69971;BME280;57301;50.328;8.542;2023-03-25T13:55:27;97535.25;;;13.97;49.08
69971;BME280;57301;50.328;8.542;2023-03-25T14:00:53;97555.81;;;12.42;54.11
69971;BME280;57301;50.328;8.542;2023-03-25T14:03:44;97556.25;;;14.35;48.02
69971;BME280;57301;50.328;8.542;2023-03-25T14:12:06;97550.50;;;15.66;43.66
69971;BME280;57301;50.328;8.542;2023-03-25T14:14:49;97541.88;;;17.23;42.45
69971;BME280;57301;50.328;8.542;2023-03-25T14:17:21;97542.81;;;15.63;43.79
69971;BME280;57301;50.328;8.542;2023-03-25T14:19:50;97545.31;;;16.35;43.05
69971;BME280;57301;50.328;8.542;2023-03-25T14:22:23;97546.94;;;16.88;42.83
69971;BME280;57301;50.328;8.542;2023-03-25T14:24:51;97545.63;;;17.47;40.42
69971;BME280;57301;50.328;8.542;2023-03-25T14:27:24;97547.63;;;18.02;38.76
69971;BME280;57301;50.328;8.542;2023-03-25T14:30:03;97547.34;;;15.75;41.57
69971;BME280;57301;50.328;8.542;2023-03-25T14:32:39;97555.84;;;15.72;42.76
69971;BME280;57301;50.328;8.542;2023-03-25T14:43:51;97513.06;;;17.24;37.73
69971;BME280;57301;50.328;8.542;2023-03-25T14:46:34;97525.66;;;14.84;41.05
69971;BME280;57301;50.328;8.542;2023-03-25T14:56:40;97529.16;;;15.51;40.76
69971;BME280;57301;50.328;8.542;2023-03-25T14:59:18;97532.44;;;13.71;43.72
69971;BME280;57301;50.328;8.542;2023-03-25T15:01:46;97520.53;;;12.96;45.28
69971;BME280;57301;50.328;8.542;2023-03-25T15:04:33;97510.50;;;12.77;45.85
69971;BME280;57301;50.328;8.542;2023-03-25T15:07:03;97512.13;;;13.21;46.14
69971;BME280;57301;50.328;8.542;2023-03-25T15:09:44;97502.16;;;13.42;46.50
69971;BME280;57301;50.328;8.542;2023-03-25T15:12:15;97518.16;;;13.57;46.00
69971;BME280;57301;50.328;8.542;2023-03-25T15:14:42;97508.31;;;12.66;46.41
69971;BME280;57301;50.328;8.542;2023-03-25T15:17:10;97490.38;;;12.59;44.86
69971;BME280;57301;50.328;8.542;2023-03-25T15:22:37;97496.81;;;12.65;45.58